Time;durP1;ratioP1;P1;durP2;ratioP2;P2;SDS_P1;SDS_P2;PMS_P1;PMS_P2;Temp;Humidity;BMP_temperature;BMP_pressure;BME280_temperature;BME280_humidity;BME280_pressure;Samples;Min_cycle;Max_cycle;Signal;HPM_P1;HPM_P2
2021/08/23 00:15:27;;;;;;;14.68;9.23;;;;;;;16.92;100.00;100573.35;21090056;82;100304;-83
2021/08/23 00:45:28;;;;;;;14.25;8.93;;;;;;;16.75;99.87;100541.00;21104377;81;99986;-82
2021/08/23 01:15:30;;;;;;;12.90;8.70;;;;;;;16.56;100.00;100540.84;21097711;81;99456;-83
2021/08/23 01:45:31;;;;;;;12.87;7.63;;;;;;;16.40;100.00;100558.06;21020774;80;100195;-86
2021/08/23 02:15:31;;;;;;;22.07;8.97;;;;;;;16.44;99.96;100553.27;20874308;82;99779;-85
2021/08/23 02:45:32;;;;;;;14.40;10.90;;;;;;;16.42;100.00;100560.43;21131123;80;99900;-84
2021/08/23 03:15:33;;;;;;;17.60;12.30;;;;;;;16.35;100.00;100539.65;21182456;81;99928;-83
2021/08/23 03:45:34;;;;;;;15.32;11.10;;;;;;;16.27;100.00;100545.08;21184074;80;100583;-83
2021/08/23 04:15:36;;;;;;;16.43;11.43;;;;;;;16.13;100.00;100547.39;21179411;82;100066;-82
2021/08/23 04:45:42;;;;;;;14.40;10.25;;;;;;;16.05;100.00;100568.69;21079510;82;99885;-90
2021/08/23 05:15:45;;;;;;;13.23;8.20;;;;;;;15.89;100.00;100568.43;21008198;82;99990;-86
2021/08/23 05:45:46;;;;;;;13.40;10.13;;;;;;;15.68;100.00;100559.69;21107506;81;99666;-91
2021/08/23 06:15:55;;;;;;;13.90;10.20;;;;;;;15.63;100.00;100588.44;21115261;81;100220;-91
2021/08/23 06:45:56;;;;;;;12.63;9.20;;;;;;;15.77;100.00;100596.09;21166672;80;100200;-89
2021/08/23 07:15:57;;;;;;;9.80;7.28;;;;;;;15.83;100.00;100629.16;21175655;80;100196;-90
2021/08/23 07:46:00;;;;;;;;;;;;;;;15.59;100.00;100643.96;21040492;82;1921896;-91
2021/08/23 08:16:02;;;;;;;11.57;5.28;;;;;;;15.27;100.00;100664.09;20624339;81;86565;-95
2021/08/23 08:46:04;;;;;;;9.43;5.47;;;;;;;15.16;100.00;100663.35;20415887;81;100455;-89
2021/08/23 09:16:07;;;;;;;11.83;5.67;;;;;;;15.02;100.00;100689.75;20242907;85;100030;-94
2021/08/23 09:46:11;;;;;;;10.80;5.58;;;;;;;14.89;100.00;100698.89;20616495;83;99791;-95
2021/08/23 10:16:14;;;;;;;9.80;4.80;;;;;;;15.08;100.00;100706.16;20396075;83;100247;-91
2021/08/23 10:46:22;;;;;;;10.17;4.83;;;;;;;15.28;100.00;100712.05;20941998;81;99948;-92
2021/08/23 11:16:26;;;;;;;9.40;4.90;;;;;;;15.19;100.00;100733.84;21147785;82;99894;-88
2021/08/23 11:46:27;;;;;;;7.87;4.10;;;;;;;14.89;100.00;100754.31;21188378;80;99464;-88
2021/08/23 12:16:37;;;;;;;;;;;;;;;14.85;100.00;100760.45;21135899;81;99974;-93
2021/08/23 12:46:38;;;;;;;7.93;3.97;;;;;;;14.73;100.00;100767.78;21077578;80;105552;-88
2021/08/23 13:16:39;;;;;;;10.05;5.05;;;;;;;14.72;100.00;100771.14;20931188;82;99851;-92
2021/08/23 13:46:40;;;;;;;7.53;3.77;;;;;;;15.01;100.00;100769.95;20767112;82;99879;-96
2021/08/23 14:16:45;;;;;;;;;;;;;;;14.96;100.00;100785.59;20672088;82;99628;-93
2021/08/23 14:46:47;;;;;;;9.87;4.27;;;;;;;14.88;100.00;100786.77;20657726;82;85623;-91
2021/08/23 15:16:48;;;;;;;6.20;3.10;;;;;;;14.73;100.00;100796.30;20650636;83;99736;-93
2021/08/23 15:46:48;;;;;;;;;;;;;;;14.63;100.00;100806.78;20628010;83;99875;-96
2021/08/23 16:16:49;;;;;;;7.30;3.63;;;;;;;14.69;100.00;100813.50;20501517;83;85487;-87
2021/08/23 16:46:50;;;;;;;;;;;;;;;14.92;100.00;100830.52;20862143;81;99810;-87
2021/08/23 17:16:51;;;;;;;9.40;4.03;;;;;;;15.05;100.00;100844.17;21082927;82;86040;-88
2021/08/23 17:46:52;;;;;;;7.10;3.47;;;;;;;15.09;100.00;100874.08;21107461;82;99911;-86
2021/08/23 18:16:53;;;;;;;8.73;3.52;;;;;;;14.99;100.00;100895.65;21098340;81;309474;-86
2021/08/23 18:46:54;;;;;;;8.90;3.90;;;;;;;14.94;100.00;100934.07;21066638;81;99926;-84
2021/08/23 19:16:56;;;;;;;7.90;3.52;;;;;;;14.78;100.00;100990.45;21058752;80;99756;-90
2021/08/23 19:46:59;;;;;;;9.73;3.77;;;;;;;14.53;100.00;101042.19;21069778;82;99543;-88
2021/08/23 20:17:00;;;;;;;7.13;2.67;;;;;;;14.30;100.00;101036.95;21149593;81;99854;-88
2021/08/23 20:47:03;;;;;;;9.13;3.70;;;;;;;14.26;100.00;101027.81;21189908;80;99804;-84
2021/08/23 21:17:04;;;;;;;7.73;2.80;;;;;;;14.31;100.00;101049.61;21186646;80;99687;-85
2021/08/23 21:47:05;;;;;;;8.33;2.40;;;;;;;14.26;100.00;101047.20;20780388;82;99852;-83
2021/08/23 22:17:06;;;;;;;5.70;2.10;;;;;;;14.14;100.00;101041.95;20540508;83;99803;-83
2021/08/23 22:47:08;;;;;;;;;;;;;;;14.10;100.00;101056.36;20805672;80;195004;-83
2021/08/23 23:17:09;;;;;;;;;;;;;;;14.12;100.00;101037.37;21072664;82;86048;-82
2021/08/23 23:47:10;;;;;;;5.17;1.82;;;;;;;14.10;100.00;101053.59;21121718;81;85639;-85
